Latest Weather Observations for Fowlers Gap

IDN60801

Issued at 9:32 pm EDT Thursday 11 February 2016 (issued every 30 minutes, with the page automatically refreshed every 10 minutes)

About weather observations | Map of weather stations | Latest weather observations for NSW | Other Formats
Station Details ID: 046128 Name: FOWLERS GAP AWS Lat: -31.09 Lon: 141.70 Height: 181.0 m
Data from the previous 72 hours. | See also: Recent months at Fowlers Gap
Date/Time
EDT
Temp
°C
App
Temp
°C
Dew
Point
Rel
Hum
%
Delta-T
°C
Wind Press
QNH
hPa
Press
MSL
hPa
Rain
since 9 am
mm
Dir
 
Spd
km/h
Gust
km/h
Spd
kts
Gust
kts
11/09:30pm 35.4 31.6 5.8 16 16.2 NNE 15 22 8 12 1010.0 1008.9 0.0
11/09:00pm 35.6 31.6 5.0 15 16.6 NNE 15 19 8 10 1009.6 1008.5 0.0
11/08:30pm 36.3 32.6 4.6 14 17.1 ENE 13 22 7 12 1009.0 1008.0 0.0
11/08:00pm 37.4 33.5 3.2 12 18.2 E 13 17 7 9 1008.6 1007.5 0.0
11/07:30pm 37.9 33.1 2.4 11 18.7 E 17 26 9 14 1008.2 1007.1 0.0
11/07:00pm 38.8 33.1 3.1 11 19.1 E 22 30 12 16 1007.8 1006.7 0.0
11/06:30pm 39.7 36.4 2.4 10 19.8 S 9 32 5 17 1007.4 1006.3 0.0
11/06:00pm 39.1 34.2 1.9 10 19.6 SW 17 30 9 16 1007.6 1006.5 0.0
11/05:30pm 39.0 35.4 0.4 9 19.8 E 9 13 5 7 1007.5 1006.4 0.0
11/05:00pm 38.9 34.7 1.8 10 19.5 NE 13 22 7 12 1007.5 1006.4 0.0
11/04:30pm 39.3 34.8 2.1 10 19.6 S 15 22 8 12 1007.8 1006.7 0.0
11/04:00pm 38.5 34.3 1.5 10 19.3 E 13 24 7 13 1007.9 1006.8 0.0
11/03:30pm 39.4 35.3 2.2 10 19.7 W 13 22 7 12 1008.3 1007.2 0.0
11/03:00pm 39.7 35.6 2.4 10 19.8 WNW 13 22 7 12 1008.6 1007.5 0.0
11/02:30pm 38.0 35.1 2.5 11 18.7 N 7 17 4 9 1009.3 1008.2 0.0
11/02:00pm 38.5 35.3 2.8 11 19.0 W 9 19 5 10 1009.8 1008.7 0.0
11/01:30pm 37.4 34.2 3.2 12 18.2 ESE 9 13 5 7 1010.3 1009.2 0.0
11/01:00pm 36.8 34.1 2.8 12 17.9 NW 6 13 3 7 1010.8 1009.7 0.0
11/12:30pm 36.0 32.8 3.3 13 17.3 NNE 9 17 5 9 1011.1 1010.0 0.0
11/12:00pm 33.6 29.3 3.4 15 15.8 ENE 15 17 8 9 1011.4 1010.3 0.0
11/11:30am 33.2 29.0 4.0 16 15.3 E 15 19 8 10 1011.7 1010.6 0.0
11/11:00am 32.9 28.5 2.9 15 15.5 E 15 20 8 11 1011.8 1010.7 0.0
11/10:30am 33.0 27.9 3.9 16 15.2 E 20 28 11 15 1011.7 1010.6 0.0
11/10:00am 32.0 25.2 3.1 16 14.9 SE 28 35 15 19 1011.8 1010.7 0.0
11/09:30am 31.0 24.7 3.9 18 14.0 SE 26 33 14 18 1011.9 1010.8 0.0
11/09:00am 29.6 24.5 4.3 20 13.1 SE 20 26 11 14 1011.8 1010.7 0.0
11/08:30am 29.1 24.2 3.9 20 12.9 SE 19 26 10 14 1011.5 1010.4 0.0
11/08:00am 27.8 23.8 4.8 23 11.9 SSE 15 20 8 11 1011.2 1010.1 0.0
11/07:30am 27.5 23.8 4.5 23 11.8 SSE 13 15 7 8 1010.8 1009.7 0.0
11/07:00am 27.7 23.9 4.1 22 12.0 SSE 13 17 7 9 1010.6 1009.5 0.0
11/06:30am 28.0 24.3 4.3 22 12.1 SSE 13 17 7 9 1010.2 1009.1 0.0
11/06:00am 28.0 23.9 4.3 22 12.2 SSE 15 17 8 9 1009.8 1008.7 0.0
11/05:30am 28.0 23.5 4.3 22 12.1 SSE 17 20 9 11 1009.6 1008.5 0.0
11/05:00am 26.3 23.7 4.1 24 11.2 SSW 7 9 4 5 1009.7 1008.6 0.0
11/04:30am 27.0 24.3 3.5 22 11.8 S 7 9 4 5 1009.5 1008.4 0.0
11/04:00am 27.7 24.3 4.1 22 12.0 SSW 11 15 6 8 1009.6 1008.5 0.0
11/03:30am 28.0 25.0 4.3 22 12.1 SSW 9 11 5 6 1009.6 1008.5 0.0
11/03:00am 28.4 27.2 4.6 22 12.3 CALM 0 0 0 0 1009.9 1008.8 0.0
11/02:30am 29.1 26.2 4.6 21 12.7 SE 9 11 5 6 1009.7 1008.6 0.0
11/02:00am 28.1 26.6 5.0 23 12.0 SW 2 6 1 3 1009.9 1008.8 0.0
11/01:30am 28.3 26.0 4.6 22 12.2 S 6 9 3 5 1010.1 1009.0 0.0
11/01:00am 29.4 26.5 4.8 21 12.8 SSW 9 9 5 5 1010.2 1009.1 0.0
11/12:30am 30.5 29.4 5.0 20 13.4 CALM 0 0 0 0 1010.3 1009.2 0.0
11/12:00am 31.2 30.2 5.6 20 13.7 CALM 0 6 0 3 1010.4 1009.3 0.0
 
Date/Time
EDT
Temp
°C
App
Temp
°C
Dew
Point
Rel
Hum
%
Delta-T
°C
Wind Press
QNH
hPa
Press
MSL
hPa
Rain
since 9 am
mm
Dir
 
Spd
km/h
Gust
km/h
Spd
kts
Gust
kts
10/11:30pm 32.0 31.1 6.2 20 14.0 CALM 0 0 0 0 1010.5 1009.4 0.0
10/11:00pm 33.0 32.0 5.5 18 14.8 CALM 0 0 0 0 1010.5 1009.4 0.0
10/10:30pm 33.6 32.5 5.2 17 15.2 CALM 0 0 0 0 1010.5 1009.4 0.0
10/10:00pm 34.4 33.1 5.8 17 15.6 E 2 7 1 4 1010.3 1009.2 0.0
10/09:30pm 35.5 32.8 3.9 14 16.8 ESE 7 9 4 5 1010.2 1009.1 0.0
10/09:00pm 35.9 32.9 4.2 14 17.0 ESE 9 13 5 7 1010.1 1009.0 0.0
10/08:30pm 36.5 32.7 3.7 13 17.5 ESE 13 19 7 10 1009.9 1008.8 0.0
10/08:00pm 37.0 33.8 2.9 12 18.0 E 9 11 5 6 1009.7 1008.6 0.0
10/07:30pm 37.2 34.4 3.1 12 18.1 WSW 7 9 4 5 1009.5 1008.4 0.0
10/07:00pm 37.4 34.6 3.2 12 18.2 NE 7 11 4 6 1009.3 1008.2 0.0
10/06:30pm 37.4 34.8 3.2 12 18.2 SSE 6 11 3 6 1009.3 1008.2 0.0
10/06:00pm 37.4 33.8 3.2 12 18.2 SSE 11 15 6 8 1009.1 1008.1 0.0
10/05:30pm 38.4 34.0 2.8 11 18.9 SSE 15 22 8 12 1009.1 1008.1 0.0
10/05:00pm 39.2 35.3 3.4 11 19.3 NE 13 19 7 10 1009.1 1008.1 0.0
10/04:30pm 38.3 35.0 2.7 11 18.8 SW 9 15 5 8 1009.6 1008.5 0.0
10/04:00pm 38.3 33.4 3.9 12 18.6 S 19 28 10 15 1009.9 1008.8 0.0
10/03:30pm 39.7 35.9 3.7 11 19.5 NW 13 24 7 13 1010.4 1009.3 0.0
10/03:00pm 38.7 34.2 4.2 12 18.7 SSW 17 22 9 12 1010.9 1009.8 0.0
10/02:30pm 38.7 35.3 4.2 12 18.7 W 11 28 6 15 1011.2 1010.1 0.0
10/02:00pm 37.4 35.0 5.4 14 17.6 NNW 7 19 4 10 1011.6 1010.5 0.0
10/01:30pm 36.9 32.7 4.0 13 17.6 NNW 15 26 8 14 1012.0 1010.9 0.0
10/01:00pm 36.6 32.6 4.8 14 17.2 NW 15 28 8 15 1012.5 1011.4 0.0
10/12:30pm 36.4 32.2 5.6 15 16.9 WNW 17 26 9 14 1012.9 1011.8 0.0
10/12:00pm 35.5 31.3 5.8 16 16.3 NNW 17 26 9 14 1013.3 1012.2 0.0
10/11:30am 34.6 29.9 6.0 17 15.6 NNW 20 30 11 16 1013.7 1012.6 0.0
10/11:00am 33.8 29.1 6.2 18 15.1 N 20 24 11 13 1013.9 1012.9 0.0
10/10:30am 33.4 28.4 6.6 19 14.7 N 22 30 12 16 1014.1 1013.1 0.0
10/10:00am 32.5 27.0 5.9 19 14.4 N 24 33 13 18 1013.9 1012.9 0.0
10/09:30am 31.8 27.8 6.8 21 13.6 N 17 26 9 14 1013.8 1012.7 0.0
10/09:00am 26.8 26.1 6.8 28 10.6 CALM 0 0 0 0 1013.9 1012.9 0.0
10/08:30am 24.6 23.3 5.9 30 9.6 N 2 6 1 3 1013.8 1012.7 0.0
10/08:00am 22.9 20.7 6.2 34 8.6 SW 7 9 4 5 1013.6 1012.5 0.0
10/07:30am 21.3 20.4 6.0 37 7.7 CALM 0 0 0 0 1013.3 1012.2 0.0
10/07:00am 21.0 20.0 5.8 37 7.7 CALM 0 0 0 0 1013.0 1011.9 0.0
10/06:30am 21.8 20.1 5.7 35 8.1 NW 4 9 2 5 1012.7 1011.6 0.0
10/06:00am 22.3 21.3 5.7 34 8.4 CALM 0 0 0 0 1012.4 1011.3 0.0
10/05:30am 22.9 21.1 5.3 32 8.9 NW 4 7 2 4 1012.2 1011.1 0.0
10/05:00am 23.8 22.8 5.7 31 9.3 CALM 0 0 0 0 1012.0 1010.9 0.0
10/04:30am 24.3 22.0 5.6 30 9.6 W 7 9 4 5 1012.0 1010.9 0.0
10/04:00am 25.6 23.4 5.2 27 10.5 W 6 7 3 4 1011.8 1010.7 0.0
10/03:30am 26.1 23.8 5.7 27 10.6 S 7 11 4 6 1011.9 1010.8 0.0
10/03:00am 25.7 23.6 5.8 28 10.3 SSW 6 11 3 6 1012.0 1010.9 0.0
10/02:30am 25.4 24.5 6.1 29 10.0 CALM 0 0 0 0 1012.1 1011.0 0.0
10/02:00am 25.3 24.4 6.0 29 10.0 CALM 0 0 0 0 1012.4 1011.3 0.0
10/01:30am 26.3 25.5 6.4 28 10.5 CALM 0 0 0 0 1012.6 1011.5 0.0
10/01:00am 27.2 25.0 6.0 26 11.1 WSW 7 9 4 5 1012.8 1011.7 0.0
10/12:30am 28.3 26.1 6.4 25 11.6 SW 7 11 4 6 1012.9 1011.8 0.0
10/12:00am 28.7 27.0 6.1 24 12.0 E 4 6 2 3 1013.0 1011.9 0.0
 
Date/Time
EDT
Temp
°C
App
Temp
°C
Dew
Point
Rel
Hum
%
Delta-T
°C
Wind Press
QNH
hPa
Press
MSL
hPa
Rain
since 9 am
mm
Dir
 
Spd
km/h
Gust
km/h
Spd
kts
Gust
kts
09/11:30pm 30.1 27.9 5.4 21 13.0 ENE 6 7 3 4 1013.2 1012.1 0.0
09/11:00pm 30.7 28.4 5.9 21 13.3 ENE 7 9 4 5 1013.1 1012.0 0.0
09/10:30pm 31.5 29.1 5.1 19 14.0 ENE 7 7 4 4 1013.2 1012.1 0.0
09/10:00pm 32.6 29.8 5.2 18 14.6 E 9 11 5 6 1013.0 1011.9 0.0
09/09:30pm 34.1 31.2 4.7 16 15.7 E 9 13 5 7 1012.8 1011.7 0.0
09/09:00pm 35.0 31.7 4.5 15 16.3 E 11 15 6 8 1012.7 1011.6 0.0
09/08:30pm 35.6 32.0 5.0 15 16.5 E 13 17 7 9 1012.7 1011.6 0.0
09/08:00pm 36.5 32.5 4.7 14 17.2 ESE 15 20 8 11 1012.6 1011.5 0.0
09/07:30pm 36.5 32.1 4.7 14 17.2 ESE 17 26 9 14 1012.4 1011.3 0.0
09/07:00pm 37.2 32.7 4.2 13 17.8 SE 17 28 9 15 1012.3 1011.2 0.0
09/06:30pm 37.9 33.3 3.6 12 18.4 E 17 30 9 16 1012.2 1011.1 0.0
09/06:00pm 37.7 32.5 3.4 12 18.3 SE 20 35 11 19 1012.3 1011.2 0.0
09/05:30pm 37.9 32.5 4.7 13 18.1 SSE 22 33 12 18 1012.4 1011.3 0.0
09/05:00pm 37.8 32.6 3.5 12 18.3 SE 20 33 11 18 1012.8 1011.7 0.0
09/04:30pm 38.3 33.4 5.0 13 18.3 S 20 30 11 16 1013.1 1012.0 0.0
09/04:00pm 37.3 33.0 5.3 14 17.5 ESE 17 28 9 15 1013.5 1012.4 0.0
09/03:30pm 37.7 32.9 4.6 13 18.0 SE 19 30 10 16 1014.1 1013.1 0.0
09/03:00pm 37.2 32.0 5.3 14 17.5 ESE 22 32 12 17 1014.5 1013.5 0.0
09/02:30pm 36.5 33.1 5.7 15 16.9 ESE 13 30 7 16 1014.9 1013.9 0.0
09/02:00pm 36.9 32.2 6.0 15 17.1 SSE 20 30 11 16 1015.5 1014.4 0.0
09/01:30pm 35.8 31.1 5.1 15 16.6 E 19 30 10 16 1015.9 1014.8 0.0
09/01:00pm 35.9 31.6 5.2 15 16.7 E 17 28 9 15 1016.2 1015.1 0.0
09/12:30pm 35.1 30.7 4.6 15 16.3 E 17 26 9 14 1016.8 1015.7 0.0
09/12:00pm 34.3 29.9 4.9 16 15.7 E 17 26 9 14 1017.2 1016.1 0.0
09/11:30am 33.7 29.4 5.3 17 15.3 ESE 17 28 9 15 1017.4 1016.3 0.0
09/11:00am 33.7 29.6 6.1 18 15.0 SE 17 26 9 14 1017.4 1016.3 0.0
09/10:30am 32.1 27.6 6.3 20 14.0 SE 19 24 10 13 1017.3 1016.2 0.0
09/10:00am 31.0 26.5 6.8 22 13.1 SSE 20 28 11 15 1017.2 1016.1 0.0
09/09:30am 29.9 25.5 7.2 24 12.3 SSE 20 28 11 15 1017.2 1016.1 0.0
09/09:00am 28.7 23.5 7.3 26 11.6 SSE 24 32 13 17 1016.9 1015.8 0.0
09/08:30am 27.4 22.6 7.3 28 10.8 SSE 22 32 12 17 1016.8 1015.7 0.0
09/08:00am 26.4 21.2 7.4 30 10.2 SSE 24 32 13 17 1016.5 1015.4 0.0
09/07:30am 25.7 20.9 7.3 31 9.8 SSE 22 28 12 15 1016.2 1015.1 0.0
09/07:00am 25.8 21.4 7.4 31 9.8 SSE 20 26 11 14 1015.9 1014.8 0.0
09/06:30am 26.2 21.5 7.7 31 9.9 SSE 22 30 12 16 1015.6 1014.5 0.0
09/06:00am 26.4 21.6 7.4 30 10.2 S 22 28 12 15 1015.3 1014.2 0.0
09/05:30am 26.7 22.4 7.7 30 10.2 S 20 28 11 15 1015.1 1014.0 0.0
09/05:00am 26.5 23.1 7.5 30 10.2 SSE 15 19 8 10 1014.8 1013.8 0.0
09/04:30am 26.9 23.4 7.4 29 10.5 SSE 15 20 8 11 1014.7 1013.7 0.0
09/04:00am 27.8 23.1 6.0 25 11.5 S 20 26 11 14 1014.7 1013.7 0.0
09/03:30am 29.8 25.7 4.4 20 13.2 ESE 15 22 8 12 1014.4 1013.4 0.0
09/03:00am 26.8 23.1 4.6 24 11.3 SSE 13 15 7 8 1014.4 1013.4 0.0
09/02:30am 28.8 25.1 4.3 21 12.6 SSE 13 17 7 9 1014.7 1013.7 0.0
09/02:00am 29.3 25.1 4.0 20 13.0 SSE 15 17 8 9 1014.9 1013.9 0.0
09/01:30am 30.3 25.6 3.4 18 13.8 SE 17 20 9 11 1015.2 1014.1 0.0
09/01:00am 30.8 26.1 3.0 17 14.2 SE 17 20 9 11 1015.4 1014.3 0.0
09/12:30am 31.3 26.3 3.4 17 14.4 SE 19 24 10 13 1015.4 1014.3 0.0
09/12:00am 31.1 26.4 3.2 17 14.3 SE 17 20 9 11 1015.5 1014.4 0.0
 
Date/Time
EDT
Temp
°C
App
Temp
°C
Dew
Point
Rel
Hum
%
Delta-T
°C
Wind Press
QNH
hPa
Press
MSL
hPa
Rain
since 9 am
mm
Dir
 
Spd
km/h
Gust
km/h
Spd
kts
Gust
kts
08/11:30pm 31.2 26.4 2.4 16 14.6 SE 17 19 9 10 1015.6 1014.5 0.0
08/11:00pm 31.5 27.1 2.7 16 14.6 SE 15 19 8 10 1015.5 1014.4 0.0
08/10:30pm 32.1 27.6 2.2 15 15.1 SE 15 19 8 10 1015.4 1014.3 0.0
08/10:00pm 32.8 27.9 1.8 14 15.7 SE 17 20 9 11 1015.1 1014.0 0.0

Other Formats:

Comma delimited format used in spreadsheet applications
http://www.bom.gov.au/fwo/IDN60801/IDN60801.94686.axf

JavaScript Object Notation format (JSON) in row-major order
http://www.bom.gov.au/fwo/IDN60801/IDN60801.94686.json